sensor_id;sensor_type;location;lat;lon;timestamp;temperature;humidity
35668;DHT22;22158;59.280;17.806;2023-04-24T05:02:06;5.10;99.90
35668;DHT22;22158;59.280;17.806;2023-04-24T05:04:31;5.10;99.90
35668;DHT22;22158;59.280;17.806;2023-04-24T05:06:57;5.10;99.90
35668;DHT22;22158;59.280;17.806;2023-04-24T05:09:22;5.10;99.90
35668;DHT22;22158;59.280;17.806;2023-04-24T05:11:48;5.10;99.90
35668;DHT22;22158;59.280;17.806;2023-04-24T05:14:13;5.10;99.90
35668;DHT22;22158;59.280;17.806;2023-04-24T05:16:39;5.10;99.90
35668;DHT22;22158;59.280;17.806;2023-04-24T05:19:05;5.10;99.90
35668;DHT22;22158;59.280;17.806;2023-04-24T05:21:31;5.10;99.90
35668;DHT22;22158;59.280;17.806;2023-04-24T05:23:57;5.00;99.90
35668;DHT22;22158;59.280;17.806;2023-04-24T05:26:22;5.00;99.90
35668;DHT22;22158;59.280;17.806;2023-04-24T05:28:48;5.00;99.90
35668;DHT22;22158;59.280;17.806;2023-04-24T05:31:14;5.00;99.90
35668;DHT22;22158;59.280;17.806;2023-04-24T05:33:39;5.00;99.90
35668;DHT22;22158;59.280;17.806;2023-04-24T05:36:06;5.00;99.90
35668;DHT22;22158;59.280;17.806;2023-04-24T05:38:32;5.10;99.90
35668;DHT22;22158;59.280;17.806;2023-04-24T05:40:57;5.10;99.90
35668;DHT22;22158;59.280;17.806;2023-04-24T05:43:23;5.00;99.90
35668;DHT22;22158;59.280;17.806;2023-04-24T05:45:48;5.10;99.90
35668;DHT22;22158;59.280;17.806;2023-04-24T05:48:14;5.10;99.90
35668;DHT22;22158;59.280;17.806;2023-04-24T05:50:40;5.00;99.90
35668;DHT22;22158;59.280;17.806;2023-04-24T05:53:05;5.00;99.90
35668;DHT22;22158;59.280;17.806;2023-04-24T05:55:32;5.00;99.90
35668;DHT22;22158;59.280;17.806;2023-04-24T05:57:58;5.00;99.90
35668;DHT22;22158;59.280;17.806;2023-04-24T06:00:24;5.10;99.90
35668;DHT22;22158;59.280;17.806;2023-04-24T06:02:50;5.10;99.90
35668;DHT22;22158;59.280;17.806;2023-04-24T06:05:16;5.20;99.90
35668;DHT22;22158;59.280;17.806;2023-04-24T06:07:42;5.20;99.90
35668;DHT22;22158;59.280;17.806;2023-04-24T06:10:08;5.20;99.90
35668;DHT22;22158;59.280;17.806;2023-04-24T06:12:34;5.20;99.90
35668;DHT22;22158;59.280;17.806;2023-04-24T06:15:00;5.20;99.90
35668;DHT22;22158;59.280;17.806;2023-04-24T06:17:26;5.20;99.90
35668;DHT22;22158;59.280;17.806;2023-04-24T06:19:51;5.20;99.90
35668;DHT22;22158;59.280;17.806;2023-04-24T06:22:17;5.20;99.90
35668;DHT22;22158;59.280;17.806;2023-04-24T06:24:42;5.20;99.90
35668;DHT22;22158;59.280;17.806;2023-04-24T06:27:08;5.10;99.90
35668;DHT22;22158;59.280;17.806;2023-04-24T06:29:34;5.00;99.90
35668;DHT22;22158;59.280;17.806;2023-04-24T06:31:59;5.10;99.90
35668;DHT22;22158;59.280;17.806;2023-04-24T06:34:25;5.10;99.90
35668;DHT22;22158;59.280;17.806;2023-04-24T06:36:51;5.10;99.90
35668;DHT22;22158;59.280;17.806;2023-04-24T06:39:16;5.00;99.90
35668;DHT22;22158;59.280;17.806;2023-04-24T06:41:42;5.00;99.90
35668;DHT22;22158;59.280;17.806;2023-04-24T06:44:08;5.10;99.90
35668;DHT22;22158;59.280;17.806;2023-04-24T06:46:33;5.10;99.90
35668;DHT22;22158;59.280;17.806;2023-04-24T06:49:00;5.10;99.90
35668;DHT22;22158;59.280;17.806;2023-04-24T06:51:26;5.20;99.90
35668;DHT22;22158;59.280;17.806;2023-04-24T06:53:53;5.20;99.90
35668;DHT22;22158;59.280;17.806;2023-04-24T06:56:19;5.30;99.90
35668;DHT22;22158;59.280;17.806;2023-04-24T06:58:45;5.30;99.90
35668;DHT22;22158;59.280;17.806;2023-04-24T07:01:11;5.40;99.90
35668;DHT22;22158;59.280;17.806;2023-04-24T07:03:37;5.40;99.90
35668;DHT22;22158;59.280;17.806;2023-04-24T07:06:04;5.40;99.90
35668;DHT22;22158;59.280;17.806;2023-04-24T07:08:30;5.40;99.90
35668;DHT22;22158;59.280;17.806;2023-04-24T07:10:56;5.40;99.90
35668;DHT22;22158;59.280;17.806;2023-04-24T07:13:23;5.40;99.90
35668;DHT22;22158;59.280;17.806;2023-04-24T07:15:48;5.50;99.90
35668;DHT22;22158;59.280;17.806;2023-04-24T07:18:16;5.60;99.90
35668;DHT22;22158;59.280;17.806;2023-04-24T07:20:42;5.60;99.90
35668;DHT22;22158;59.280;17.806;2023-04-24T07:23:08;5.60;99.90
35668;DHT22;22158;59.280;17.806;2023-04-24T07:25:33;5.70;99.90
35668;DHT22;22158;59.280;17.806;2023-04-24T07:27:59;5.80;99.90
35668;DHT22;22158;59.280;17.806;2023-04-24T07:30:25;5.80;99.90
35668;DHT22;22158;59.280;17.806;2023-04-24T07:32:51;5.80;99.90
35668;DHT22;22158;59.280;17.806;2023-04-24T07:35:16;5.80;99.90
35668;DHT22;22158;59.280;17.806;2023-04-24T07:37:42;5.70;99.90
35668;DHT22;22158;59.280;17.806;2023-04-24T07:40:12;5.70;99.90
35668;DHT22;22158;59.280;17.806;2023-04-24T07:42:38;5.70;99.90
35668;DHT22;22158;59.280;17.806;2023-04-24T07:45:04;5.70;99.90
35668;DHT22;22158;59.280;17.806;2023-04-24T07:47:30;5.70;99.90
35668;DHT22;22158;59.280;17.806;2023-04-24T07:49:56;5.70;99.90
35668;DHT22;22158;59.280;17.806;2023-04-24T07:52:21;5.70;99.90
35668;DHT22;22158;59.280;17.806;2023-04-24T07:54:47;5.70;99.90
35668;DHT22;22158;59.280;17.806;2023-04-24T07:57:12;5.70;99.90
35668;DHT22;22158;59.280;17.806;2023-04-24T07:59:39;5.70;99.90
35668;DHT22;22158;59.280;17.806;2023-04-24T08:02:04;5.80;99.90
35668;DHT22;22158;59.280;17.806;2023-04-24T08:04:31;5.70;99.90
35668;DHT22;22158;59.280;17.806;2023-04-24T08:06:57;5.80;99.90
35668;DHT22;22158;59.280;17.806;2023-04-24T08:09:23;5.80;99.90
35668;DHT22;22158;59.280;17.806;2023-04-24T08:11:48;5.80;99.90
35668;DHT22;22158;59.280;17.806;2023-04-24T08:14:14;5.80;99.90
35668;DHT22;22158;59.280;17.806;2023-04-24T08:16:40;5.80;99.90
35668;DHT22;22158;59.280;17.806;2023-04-24T08:19:06;5.80;99.90
35668;DHT22;22158;59.280;17.806;2023-04-24T08:21:32;5.80;99.90
35668;DHT22;22158;59.280;17.806;2023-04-24T08:23:57;5.90;99.90
35668;DHT22;22158;59.280;17.806;2023-04-24T08:26:23;6.00;99.90
35668;DHT22;22158;59.280;17.806;2023-04-24T08:28:49;6.00;99.90
35668;DHT22;22158;59.280;17.806;2023-04-24T08:31:14;6.10;99.90
35668;DHT22;22158;59.280;17.806;2023-04-24T08:33:40;6.20;99.90
35668;DHT22;22158;59.280;17.806;2023-04-24T08:36:07;6.20;99.90
35668;DHT22;22158;59.280;17.806;2023-04-24T08:38:33;6.20;99.90
35668;DHT22;22158;59.280;17.806;2023-04-24T08:41:00;6.30;99.90
35668;DHT22;22158;59.280;17.806;2023-04-24T08:43:25;6.30;99.90
35668;DHT22;22158;59.280;17.806;2023-04-24T08:45:52;6.30;99.90
35668;DHT22;22158;59.280;17.806;2023-04-24T08:48:18;6.40;99.90
35668;DHT22;22158;59.280;17.806;2023-04-24T08:50:44;6.50;99.90
35668;DHT22;22158;59.280;17.806;2023-04-24T08:53:11;6.50;99.90
35668;DHT22;22158;59.280;17.806;2023-04-24T08:55:37;6.50;99.90
35668;DHT22;22158;59.280;17.806;2023-04-24T08:58:03;6.60;99.90
35668;DHT22;22158;59.280;17.806;2023-04-24T09:00:30;6.60;99.90
35668;DHT22;22158;59.280;17.806;2023-04-24T09:02:56;6.60;99.90
35668;DHT22;22158;59.280;17.806;2023-04-24T09:05:22;6.60;99.90
35668;DHT22;22158;59.280;17.806;2023-04-24T09:07:56;6.60;99.90
35668;DHT22;22158;59.280;17.806;2023-04-24T09:10:24;6.60;99.90
35668;DHT22;22158;59.280;17.806;2023-04-24T09:12:51;6.70;99.90
35668;DHT22;22158;59.280;17.806;2023-04-24T09:15:19;6.80;99.90
35668;DHT22;22158;59.280;17.806;2023-04-24T09:17:46;6.90;99.90
35668;DHT22;22158;59.280;17.806;2023-04-24T09:20:11;7.00;99.90
35668;DHT22;22158;59.280;17.806;2023-04-24T09:22:37;7.00;99.90
35668;DHT22;22158;59.280;17.806;2023-04-24T09:25:07;7.00;99.90
35668;DHT22;22158;59.280;17.806;2023-04-24T09:27:34;7.10;99.90
35668;DHT22;22158;59.280;17.806;2023-04-24T09:30:01;7.10;99.90
35668;DHT22;22158;59.280;17.806;2023-04-24T09:32:27;7.10;99.90
35668;DHT22;22158;59.280;17.806;2023-04-24T09:35:14;7.00;99.90
35668;DHT22;22158;59.280;17.806;2023-04-24T09:37:42;7.00;99.90
35668;DHT22;22158;59.280;17.806;2023-04-24T09:42:44;6.90;99.90
35668;DHT22;22158;59.280;17.806;2023-04-24T09:45:11;6.80;99.90
35668;DHT22;22158;59.280;17.806;2023-04-24T09:47:40;6.80;99.90
35668;DHT22;22158;59.280;17.806;2023-04-24T09:50:16;6.80;99.90
35668;DHT22;22158;59.280;17.806;2023-04-24T09:52:56;6.90;99.90
35668;DHT22;22158;59.280;17.806;2023-04-24T09:55:22;6.90;99.90
35668;DHT22;22158;59.280;17.806;2023-04-24T09:57:52;6.90;99.90
35668;DHT22;22158;59.280;17.806;2023-04-24T10:03:09;6.90;99.90
35668;DHT22;22158;59.280;17.806;2023-04-24T10:05:36;6.80;99.90
35668;DHT22;22158;59.280;17.806;2023-04-24T10:08:07;6.80;99.90
35668;DHT22;22158;59.280;17.806;2023-04-24T10:10:39;6.80;99.90
35668;DHT22;22158;59.280;17.806;2023-04-24T10:13:05;6.80;99.90
35668;DHT22;22158;59.280;17.806;2023-04-24T10:15:32;6.80;99.90
35668;DHT22;22158;59.280;17.806;2023-04-24T10:17:59;6.70;99.90
35668;DHT22;22158;59.280;17.806;2023-04-24T10:20:27;6.60;99.90
35668;DHT22;22158;59.280;17.806;2023-04-24T10:22:55;6.60;99.90
35668;DHT22;22158;59.280;17.806;2023-04-24T10:25:24;6.60;99.90
35668;DHT22;22158;59.280;17.806;2023-04-24T10:27:51;6.60;99.90
35668;DHT22;22158;59.280;17.806;2023-04-24T10:30:18;6.60;99.90
35668;DHT22;22158;59.280;17.806;2023-04-24T10:32:44;6.60;99.90
35668;DHT22;22158;59.280;17.806;2023-04-24T10:35:12;6.70;99.90
35668;DHT22;22158;59.280;17.806;2023-04-24T10:37:45;6.70;99.90
35668;DHT22;22158;59.280;17.806;2023-04-24T10:40:16;6.80;99.90
35668;DHT22;22158;59.280;17.806;2023-04-24T10:42:42;6.80;99.90
35668;DHT22;22158;59.280;17.806;2023-04-24T10:45:19;6.80;99.90
35668;DHT22;22158;59.280;17.806;2023-04-24T10:47:57;6.80;99.90
35668;DHT22;22158;59.280;17.806;2023-04-24T10:50:25;6.80;99.90
35668;DHT22;22158;59.280;17.806;2023-04-24T10:52:51;6.90;99.90
35668;DHT22;22158;59.280;17.806;2023-04-24T10:58:12;7.00;99.90
35668;DHT22;22158;59.280;17.806;2023-04-24T11:00:39;7.00;99.90
35668;DHT22;22158;59.280;17.806;2023-04-24T11:03:09;7.00;99.90
35668;DHT22;22158;59.280;17.806;2023-04-24T11:08:28;7.00;99.90
35668;DHT22;22158;59.280;17.806;2023-04-24T11:14:00;7.00;99.90
35668;DHT22;22158;59.280;17.806;2023-04-24T11:34:53;7.30;99.90
35668;DHT22;22158;59.280;17.806;2023-04-24T11:37:19;7.30;99.90
35668;DHT22;22158;59.280;17.806;2023-04-24T11:39:45;7.40;99.90
35668;DHT22;22158;59.280;17.806;2023-04-24T11:42:15;7.40;99.90
35668;DHT22;22158;59.280;17.806;2023-04-24T11:44:42;7.40;99.90
35668;DHT22;22158;59.280;17.806;2023-04-24T11:47:08;7.40;99.90
35668;DHT22;22158;59.280;17.806;2023-04-24T11:49:36;7.40;99.90
35668;DHT22;22158;59.280;17.806;2023-04-24T11:52:04;7.30;99.90
35668;DHT22;22158;59.280;17.806;2023-04-24T11:54:30;7.30;99.90
35668;DHT22;22158;59.280;17.806;2023-04-24T11:56:56;7.20;99.90
35668;DHT22;22158;59.280;17.806;2023-04-24T11:59:22;7.10;99.90
35668;DHT22;22158;59.280;17.806;2023-04-24T12:01:48;7.10;99.90
35668;DHT22;22158;59.280;17.806;2023-04-24T12:04:15;7.20;99.90
35668;DHT22;22158;59.280;17.806;2023-04-24T12:07:03;7.20;99.90
35668;DHT22;22158;59.280;17.806;2023-04-24T12:09:56;7.20;99.90
35668;DHT22;22158;59.280;17.806;2023-04-24T12:12:24;7.20;99.90
35668;DHT22;22158;59.280;17.806;2023-04-24T12:14:57;7.30;99.90
35668;DHT22;22158;59.280;17.806;2023-04-24T12:17:28;7.30;99.90
35668;DHT22;22158;59.280;17.806;2023-04-24T12:20:02;7.30;99.90
35668;DHT22;22158;59.280;17.806;2023-04-24T12:22:36;7.30;99.90
35668;DHT22;22158;59.280;17.806;2023-04-24T12:25:10;7.40;99.90
35668;DHT22;22158;59.280;17.806;2023-04-24T12:27:36;7.50;99.90
35668;DHT22;22158;59.280;17.806;2023-04-24T12:30:04;7.60;99.90
35668;DHT22;22158;59.280;17.806;2023-04-24T12:32:30;7.70;99.90
35668;DHT22;22158;59.280;17.806;2023-04-24T12:34:56;7.80;99.90
35668;DHT22;22158;59.280;17.806;2023-04-24T12:37:25;7.90;99.90
35668;DHT22;22158;59.280;17.806;2023-04-24T12:40:05;8.00;99.90
35668;DHT22;22158;59.280;17.806;2023-04-24T12:42:32;8.10;99.90
35668;DHT22;22158;59.280;17.806;2023-04-24T12:45:07;8.10;99.90
35668;DHT22;22158;59.280;17.806;2023-04-24T12:47:34;8.00;99.90
35668;DHT22;22158;59.280;17.806;2023-04-24T12:50:01;8.00;99.90
35668;DHT22;22158;59.280;17.806;2023-04-24T12:52:28;7.90;99.90
35668;DHT22;22158;59.280;17.806;2023-04-24T12:54:55;7.90;99.90
35668;DHT22;22158;59.280;17.806;2023-04-24T12:57:22;7.90;99.90
35668;DHT22;22158;59.280;17.806;2023-04-24T12:59:48;7.90;99.90
35668;DHT22;22158;59.280;17.806;2023-04-24T13:02:13;8.00;99.90
35668;DHT22;22158;59.280;17.806;2023-04-24T13:04:46;7.90;99.90
35668;DHT22;22158;59.280;17.806;2023-04-24T13:07:15;7.90;99.90
35668;DHT22;22158;59.280;17.806;2023-04-24T13:09:42;8.00;99.90
35668;DHT22;22158;59.280;17.806;2023-04-24T13:12:08;8.00;99.90
35668;DHT22;22158;59.280;17.806;2023-04-24T13:14:34;7.90;99.90
35668;DHT22;22158;59.280;17.806;2023-04-24T13:17:00;7.80;99.90
35668;DHT22;22158;59.280;17.806;2023-04-24T13:19:26;7.80;99.90
35668;DHT22;22158;59.280;17.806;2023-04-24T13:21:53;7.70;99.90
35668;DHT22;22158;59.280;17.806;2023-04-24T13:24:20;7.70;99.90
35668;DHT22;22158;59.280;17.806;2023-04-24T13:26:46;7.70;99.90
35668;DHT22;22158;59.280;17.806;2023-04-24T13:29:11;7.70;99.90
35668;DHT22;22158;59.280;17.806;2023-04-24T13:31:37;7.60;99.90
35668;DHT22;22158;59.280;17.806;2023-04-24T13:34:03;7.60;99.90
35668;DHT22;22158;59.280;17.806;2023-04-24T13:36:29;7.70;99.90
35668;DHT22;22158;59.280;17.806;2023-04-24T13:38:55;7.60;99.90
35668;DHT22;22158;59.280;17.806;2023-04-24T13:41:21;7.40;99.90
35668;DHT22;22158;59.280;17.806;2023-04-24T13:43:46;7.50;99.90
35668;DHT22;22158;59.280;17.806;2023-04-24T13:46:12;7.50;99.90
35668;DHT22;22158;59.280;17.806;2023-04-24T13:48:38;7.50;99.90
35668;DHT22;22158;59.280;17.806;2023-04-24T13:51:03;7.60;99.90
35668;DHT22;22158;59.280;17.806;2023-04-24T13:53:29;7.60;99.90
35668;DHT22;22158;59.280;17.806;2023-04-24T13:55:55;7.60;99.90
35668;DHT22;22158;59.280;17.806;2023-04-24T13:58:21;7.50;99.90
35668;DHT22;22158;59.280;17.806;2023-04-24T14:00:46;7.40;99.90
35668;DHT22;22158;59.280;17.806;2023-04-24T14:03:12;7.30;99.90
35668;DHT22;22158;59.280;17.806;2023-04-24T14:05:37;7.20;99.90
35668;DHT22;22158;59.280;17.806;2023-04-24T14:08:03;7.10;99.90
35668;DHT22;22158;59.280;17.806;2023-04-24T14:10:29;7.10;99.90
35668;DHT22;22158;59.280;17.806;2023-04-24T14:12:55;7.10;99.90
35668;DHT22;22158;59.280;17.806;2023-04-24T14:15:21;7.10;99.90
35668;DHT22;22158;59.280;17.806;2023-04-24T14:17:47;7.10;99.90
35668;DHT22;22158;59.280;17.806;2023-04-24T14:20:13;7.00;99.90
35668;DHT22;22158;59.280;17.806;2023-04-24T14:22:38;6.90;99.90
35668;DHT22;22158;59.280;17.806;2023-04-24T14:25:05;6.80;99.90
35668;DHT22;22158;59.280;17.806;2023-04-24T14:27:32;6.70;99.90
35668;DHT22;22158;59.280;17.806;2023-04-24T14:29:59;6.60;99.90
35668;DHT22;22158;59.280;17.806;2023-04-24T14:32:25;6.50;99.90
35668;DHT22;22158;59.280;17.806;2023-04-24T14:34:51;6.50;99.90
35668;DHT22;22158;59.280;17.806;2023-04-24T14:37:16;6.50;99.90
35668;DHT22;22158;59.280;17.806;2023-04-24T14:39:42;6.50;99.90
35668;DHT22;22158;59.280;17.806;2023-04-24T14:42:07;6.50;99.90
35668;DHT22;22158;59.280;17.806;2023-04-24T14:44:33;6.60;99.90
35668;DHT22;22158;59.280;17.806;2023-04-24T14:46:59;6.50;99.90
35668;DHT22;22158;59.280;17.806;2023-04-24T14:49:25;6.50;99.90
35668;DHT22;22158;59.280;17.806;2023-04-24T14:51:51;6.60;99.90
35668;DHT22;22158;59.280;17.806;2023-04-24T14:54:17;6.60;99.90
35668;DHT22;22158;59.280;17.806;2023-04-24T14:56:42;6.60;99.90
35668;DHT22;22158;59.280;17.806;2023-04-24T14:59:10;6.60;99.90
35668;DHT22;22158;59.280;17.806;2023-04-24T15:01:35;6.50;99.90
35668;DHT22;22158;59.280;17.806;2023-04-24T15:04:01;6.40;99.90
35668;DHT22;22158;59.280;17.806;2023-04-24T15:06:26;6.40;99.90
35668;DHT22;22158;59.280;17.806;2023-04-24T15:08:52;6.30;99.90
35668;DHT22;22158;59.280;17.806;2023-04-24T15:11:18;6.20;99.90
35668;DHT22;22158;59.280;17.806;2023-04-24T15:13:44;6.10;99.90
35668;DHT22;22158;59.280;17.806;2023-04-24T15:16:12;6.00;99.90
35668;DHT22;22158;59.280;17.806;2023-04-24T15:18:38;5.90;99.90
35668;DHT22;22158;59.280;17.806;2023-04-24T15:21:03;5.90;99.90
35668;DHT22;22158;59.280;17.806;2023-04-24T15:23:29;5.90;99.90
35668;DHT22;22158;59.280;17.806;2023-04-24T15:25:54;5.90;99.90
35668;DHT22;22158;59.280;17.806;2023-04-24T15:28:20;5.90;99.90
35668;DHT22;22158;59.280;17.806;2023-04-24T15:30:47;5.90;99.90
35668;DHT22;22158;59.280;17.806;2023-04-24T15:33:13;5.90;99.90
35668;DHT22;22158;59.280;17.806;2023-04-24T15:35:39;5.90;99.90
35668;DHT22;22158;59.280;17.806;2023-04-24T15:38:05;5.80;99.90
35668;DHT22;22158;59.280;17.806;2023-04-24T15:40:31;5.80;99.90
35668;DHT22;22158;59.280;17.806;2023-04-24T15:42:56;5.80;99.90
35668;DHT22;22158;59.280;17.806;2023-04-24T15:45:22;5.70;99.90
35668;DHT22;22158;59.280;17.806;2023-04-24T15:47:48;5.60;99.90
35668;DHT22;22158;59.280;17.806;2023-04-24T15:50:15;5.60;99.90
35668;DHT22;22158;59.280;17.806;2023-04-24T15:52:42;5.60;99.90
35668;DHT22;22158;59.280;17.806;2023-04-24T15:55:08;5.60;99.90
35668;DHT22;22158;59.280;17.806;2023-04-24T15:57:34;5.70;99.90
35668;DHT22;22158;59.280;17.806;2023-04-24T15:59:59;5.60;99.90
35668;DHT22;22158;59.280;17.806;2023-04-24T16:02:25;5.60;99.90
35668;DHT22;22158;59.280;17.806;2023-04-24T16:04:51;5.40;99.90
35668;DHT22;22158;59.280;17.806;2023-04-24T16:07:17;5.30;99.90
35668;DHT22;22158;59.280;17.806;2023-04-24T16:09:43;5.30;99.90
35668;DHT22;22158;59.280;17.806;2023-04-24T16:12:10;5.30;99.90
35668;DHT22;22158;59.280;17.806;2023-04-24T16:14:37;5.20;99.90
35668;DHT22;22158;59.280;17.806;2023-04-24T16:17:02;5.30;99.90
35668;DHT22;22158;59.280;17.806;2023-04-24T16:19:28;5.30;99.90
35668;DHT22;22158;59.280;17.806;2023-04-24T16:21:54;5.30;99.90
35668;DHT22;22158;59.280;17.806;2023-04-24T16:24:23;5.30;99.90
35668;DHT22;22158;59.280;17.806;2023-04-24T16:26:50;5.20;99.90
35668;DHT22;22158;59.280;17.806;2023-04-24T16:29:16;5.20;99.90
35668;DHT22;22158;59.280;17.806;2023-04-24T16:31:41;5.20;99.90
35668;DHT22;22158;59.280;17.806;2023-04-24T16:34:07;5.30;99.90
35668;DHT22;22158;59.280;17.806;2023-04-24T16:36:34;5.20;99.90
35668;DHT22;22158;59.280;17.806;2023-04-24T16:39:00;5.20;99.90
35668;DHT22;22158;59.280;17.806;2023-04-24T16:41:26;5.20;99.90
35668;DHT22;22158;59.280;17.806;2023-04-24T16:43:53;5.20;99.90
35668;DHT22;22158;59.280;17.806;2023-04-24T16:46:19;5.20;99.90
35668;DHT22;22158;59.280;17.806;2023-04-24T16:48:45;5.20;99.90
35668;DHT22;22158;59.280;17.806;2023-04-24T16:51:10;5.20;99.90
35668;DHT22;22158;59.280;17.806;2023-04-24T16:53:36;5.10;99.90
35668;DHT22;22158;59.280;17.806;2023-04-24T16:56:02;5.10;99.90
35668;DHT22;22158;59.280;17.806;2023-04-24T16:58:28;5.00;99.90
35668;DHT22;22158;59.280;17.806;2023-04-24T17:00:54;5.00;99.90
35668;DHT22;22158;59.280;17.806;2023-04-24T17:03:19;4.90;99.90
35668;DHT22;22158;59.280;17.806;2023-04-24T17:05:45;4.90;99.90
35668;DHT22;22158;59.280;17.806;2023-04-24T17:08:10;4.80;99.90
35668;DHT22;22158;59.280;17.806;2023-04-24T17:10:36;4.80;99.90
35668;DHT22;22158;59.280;17.806;2023-04-24T17:13:02;4.80;99.90
35668;DHT22;22158;59.280;17.806;2023-04-24T17:15:27;4.80;99.90
35668;DHT22;22158;59.280;17.806;2023-04-24T17:17:53;4.80;99.90
35668;DHT22;22158;59.280;17.806;2023-04-24T17:20:18;4.80;99.90
35668;DHT22;22158;59.280;17.806;2023-04-24T17:22:44;4.80;99.90
35668;DHT22;22158;59.280;17.806;2023-04-24T17:25:10;4.90;99.90
35668;DHT22;22158;59.280;17.806;2023-04-24T17:27:36;4.90;99.90
35668;DHT22;22158;59.280;17.806;2023-04-24T17:30:01;4.90;99.90
35668;DHT22;22158;59.280;17.806;2023-04-24T17:32:27;4.90;99.90
35668;DHT22;22158;59.280;17.806;2023-04-24T17:34:53;4.90;99.90
35668;DHT22;22158;59.280;17.806;2023-04-24T17:37:18;4.90;99.90
35668;DHT22;22158;59.280;17.806;2023-04-24T17:39:48;4.90;99.90
35668;DHT22;22158;59.280;17.806;2023-04-24T17:42:13;4.90;99.90
35668;DHT22;22158;59.280;17.806;2023-04-24T17:44:39;5.00;99.90
35668;DHT22;22158;59.280;17.806;2023-04-24T17:47:05;5.00;99.90
35668;DHT22;22158;59.280;17.806;2023-04-24T17:49:30;4.90;99.90
35668;DHT22;22158;59.280;17.806;2023-04-24T17:51:57;4.90;99.90
35668;DHT22;22158;59.280;17.806;2023-04-24T17:54:22;4.90;99.90
35668;DHT22;22158;59.280;17.806;2023-04-24T17:56:48;4.90;99.90
35668;DHT22;22158;59.280;17.806;2023-04-24T17:59:14;4.80;99.90
35668;DHT22;22158;59.280;17.806;2023-04-24T18:01:40;4.70;99.90
35668;DHT22;22158;59.280;17.806;2023-04-24T18:04:06;4.70;99.90
35668;DHT22;22158;59.280;17.806;2023-04-24T18:06:32;4.70;99.90
35668;DHT22;22158;59.280;17.806;2023-04-24T18:08:58;4.70;99.90
35668;DHT22;22158;59.280;17.806;2023-04-24T18:11:23;4.70;99.90
35668;DHT22;22158;59.280;17.806;2023-04-24T18:13:49;4.70;99.90
35668;DHT22;22158;59.280;17.806;2023-04-24T18:16:15;4.70;99.90
35668;DHT22;22158;59.280;17.806;2023-04-24T18:18:40;4.70;99.90
35668;DHT22;22158;59.280;17.806;2023-04-24T18:21:06;4.70;99.90
35668;DHT22;22158;59.280;17.806;2023-04-24T18:23:32;4.70;99.90
35668;DHT22;22158;59.280;17.806;2023-04-24T18:25:59;4.70;99.90
35668;DHT22;22158;59.280;17.806;2023-04-24T18:28:25;4.70;99.90
35668;DHT22;22158;59.280;17.806;2023-04-24T18:30:51;4.70;99.90
35668;DHT22;22158;59.280;17.806;2023-04-24T18:33:16;4.80;99.90
35668;DHT22;22158;59.280;17.806;2023-04-24T18:35:43;4.70;99.90
35668;DHT22;22158;59.280;17.806;2023-04-24T18:38:09;4.70;99.90
35668;DHT22;22158;59.280;17.806;2023-04-24T18:40:34;4.70;99.90
35668;DHT22;22158;59.280;17.806;2023-04-24T18:43:00;4.70;99.90
35668;DHT22;22158;59.280;17.806;2023-04-24T18:45:26;4.70;99.90
35668;DHT22;22158;59.280;17.806;2023-04-24T18:47:51;4.70;99.90
35668;DHT22;22158;59.280;17.806;2023-04-24T18:50:17;4.70;99.90
35668;DHT22;22158;59.280;17.806;2023-04-24T18:52:44;4.60;99.90
35668;DHT22;22158;59.280;17.806;2023-04-24T18:55:09;4.60;99.90
35668;DHT22;22158;59.280;17.806;2023-04-24T18:57:35;4.60;99.90
35668;DHT22;22158;59.280;17.806;2023-04-24T19:00:01;4.60;99.90
35668;DHT22;22158;59.280;17.806;2023-04-24T19:02:26;4.60;99.90
35668;DHT22;22158;59.280;17.806;2023-04-24T19:04:52;4.60;99.90
35668;DHT22;22158;59.280;17.806;2023-04-24T19:07:17;4.60;99.90
35668;DHT22;22158;59.280;17.806;2023-04-24T19:09:44;4.60;99.90
35668;DHT22;22158;59.280;17.806;2023-04-24T19:12:10;4.70;99.90
35668;DHT22;22158;59.280;17.806;2023-04-24T19:14:35;4.70;99.90
35668;DHT22;22158;59.280;17.806;2023-04-24T19:17:01;4.70;99.90
35668;DHT22;22158;59.280;17.806;2023-04-24T19:19:26;4.70;99.90
35668;DHT22;22158;59.280;17.806;2023-04-24T19:21:53;4.70;99.90
35668;DHT22;22158;59.280;17.806;2023-04-24T19:24:19;4.70;99.90
35668;DHT22;22158;59.280;17.806;2023-04-24T19:26:46;4.70;99.90
35668;DHT22;22158;59.280;17.806;2023-04-24T19:29:12;4.70;99.90
35668;DHT22;22158;59.280;17.806;2023-04-24T19:31:37;4.70;99.90
35668;DHT22;22158;59.280;17.806;2023-04-24T19:34:03;4.70;99.90
35668;DHT22;22158;59.280;17.806;2023-04-24T19:36:29;4.70;99.90
35668;DHT22;22158;59.280;17.806;2023-04-24T19:38:56;4.70;99.90
35668;DHT22;22158;59.280;17.806;2023-04-24T19:41:22;4.70;99.90
35668;DHT22;22158;59.280;17.806;2023-04-24T19:43:48;4.70;99.90
35668;DHT22;22158;59.280;17.806;2023-04-24T19:46:14;4.60;99.90
35668;DHT22;22158;59.280;17.806;2023-04-24T19:48:40;4.60;99.90
35668;DHT22;22158;59.280;17.806;2023-04-24T19:51:06;4.60;99.90
35668;DHT22;22158;59.280;17.806;2023-04-24T19:53:31;4.60;99.90
35668;DHT22;22158;59.280;17.806;2023-04-24T19:55:57;4.60;99.90
35668;DHT22;22158;59.280;17.806;2023-04-24T19:58:23;4.70;99.90
35668;DHT22;22158;59.280;17.806;2023-04-24T20:00:49;4.70;99.90
35668;DHT22;22158;59.280;17.806;2023-04-24T20:03:15;4.70;99.90
35668;DHT22;22158;59.280;17.806;2023-04-24T20:05:40;4.70;99.90
35668;DHT22;22158;59.280;17.806;2023-04-24T20:08:06;4.70;99.90
35668;DHT22;22158;59.280;17.806;2023-04-24T20:10:33;4.70;99.90
35668;DHT22;22158;59.280;17.806;2023-04-24T20:13:00;4.70;99.90
35668;DHT22;22158;59.280;17.806;2023-04-24T20:15:25;4.80;99.90
35668;DHT22;22158;59.280;17.806;2023-04-24T20:17:51;4.80;99.90
35668;DHT22;22158;59.280;17.806;2023-04-24T20:20:16;4.80;99.90
35668;DHT22;22158;59.280;17.806;2023-04-24T20:22:42;4.80;99.90
35668;DHT22;22158;59.280;17.806;2023-04-24T20:25:08;4.80;99.90
35668;DHT22;22158;59.280;17.806;2023-04-24T20:27:35;4.80;99.90
35668;DHT22;22158;59.280;17.806;2023-04-24T20:30:01;4.80;99.90
35668;DHT22;22158;59.280;17.806;2023-04-24T20:32:27;4.80;99.90
35668;DHT22;22158;59.280;17.806;2023-04-24T20:34:53;4.80;99.90
35668;DHT22;22158;59.280;17.806;2023-04-24T20:37:18;4.80;99.90
35668;DHT22;22158;59.280;17.806;2023-04-24T20:39:44;4.80;99.90
35668;DHT22;22158;59.280;17.806;2023-04-24T20:42:10;4.80;99.90
35668;DHT22;22158;59.280;17.806;2023-04-24T20:44:37;4.80;99.90
35668;DHT22;22158;59.280;17.806;2023-04-24T20:47:02;4.80;99.90
35668;DHT22;22158;59.280;17.806;2023-04-24T20:49:28;4.80;99.90
35668;DHT22;22158;59.280;17.806;2023-04-24T20:51:54;4.70;99.90
35668;DHT22;22158;59.280;17.806;2023-04-24T20:54:19;4.80;99.90
35668;DHT22;22158;59.280;17.806;2023-04-24T20:56:46;4.80;99.90
35668;DHT22;22158;59.280;17.806;2023-04-24T20:59:11;4.80;99.90